createdAt,value
2023-04-09T00:01:13.107Z,100.00
2023-04-09T00:06:35.033Z,100.00
2023-04-09T00:11:57.704Z,100.00
2023-04-09T00:17:19.806Z,100.00
2023-04-09T00:22:42.263Z,100.00
2023-04-09T00:28:04.240Z,100.00
2023-04-09T00:33:26.367Z,100.00
2023-04-09T00:38:49.353Z,100.00
2023-04-09T00:44:11.734Z,100.00
2023-04-09T00:49:34.459Z,100.00
2023-04-09T00:54:56.138Z,100.00
2023-04-09T01:00:17.836Z,100.00
2023-04-09T01:06:01.876Z,100.00
2023-04-09T01:11:43.097Z,100.00
2023-04-09T01:17:19.479Z,100.00
2023-04-09T01:23:01.538Z,100.00
2023-04-09T01:28:32.012Z,100.00
2023-04-09T01:33:54.632Z,100.00
2023-04-09T01:39:17.192Z,100.00
2023-04-09T01:50:22.214Z,100.00
2023-04-09T01:55:44.471Z,100.00
2023-04-09T02:01:10.687Z,100.00
2023-04-09T02:06:39.539Z,100.00
2023-04-09T02:12:06.299Z,100.00
2023-04-09T02:17:28.360Z,100.00
2023-04-09T02:22:50.925Z,100.00
2023-04-09T02:28:13.161Z,100.00
2023-04-09T02:33:35.379Z,100.00
2023-04-09T02:38:58.091Z,100.00
2023-04-09T02:44:21.437Z,100.00
2023-04-09T02:49:43.445Z,100.00
2023-04-09T02:55:08.872Z,100.00
2023-04-09T03:00:30.716Z,100.00
2023-04-09T03:05:52.893Z,100.00
2023-04-09T03:11:14.845Z,100.00
2023-04-09T03:16:37.333Z,100.00
2023-04-09T03:21:59.639Z,100.00
2023-04-09T03:27:24.526Z,100.00
2023-04-09T03:32:50.284Z,100.00
2023-04-09T03:38:13.473Z,100.00
2023-04-09T03:43:35.753Z,100.00
2023-04-09T03:48:58.822Z,100.00
2023-04-09T03:54:33.082Z,100.00
2023-04-09T03:59:57.058Z,100.00
2023-04-09T04:05:20.430Z,100.00
2023-04-09T04:10:44.944Z,100.00
2023-04-09T04:16:11.136Z,100.00
2023-04-09T04:21:35.524Z,100.00
2023-04-09T04:26:57.728Z,100.00
2023-04-09T04:32:25.309Z,100.00
2023-04-09T04:37:51.773Z,100.00
2023-04-09T04:43:15.919Z,100.00
2023-04-09T04:48:38.414Z,99.39
2023-04-09T04:54:00.926Z,99.60
2023-04-09T04:59:23.781Z,98.64
2023-04-09T05:04:56.018Z,98.34
2023-04-09T05:10:26.889Z,96.20
2023-04-09T05:15:50.718Z,90.35
2023-04-09T05:21:13.232Z,90.52
2023-04-09T05:26:38.409Z,85.56
2023-04-09T05:32:00.331Z,82.10
2023-04-09T05:37:27.103Z,80.78
2023-04-09T05:42:50.332Z,79.02
2023-04-09T05:48:32.288Z,76.06
2023-04-09T05:53:55.924Z,75.70
2023-04-09T05:59:18.986Z,73.12
2023-04-09T06:04:44.133Z,70.33
2023-04-09T06:10:09.362Z,67.48
2023-04-09T06:15:32.063Z,67.51
2023-04-09T06:21:06.266Z,66.88
2023-04-09T06:26:28.266Z,65.80
2023-04-09T06:31:50.712Z,64.93
2023-04-09T06:37:12.763Z,64.72
2023-04-09T06:42:34.974Z,64.86
2023-04-09T06:48:19.851Z,63.03
2023-04-09T06:53:42.497Z,63.13
2023-04-09T06:59:04.701Z,60.55
2023-04-09T07:04:27.813Z,62.14
2023-04-09T07:09:54.090Z,58.89
2023-04-09T07:15:15.987Z,59.47
2023-04-09T07:20:37.916Z,56.62
2023-04-09T07:26:03.892Z,57.36
2023-04-09T07:31:26.117Z,56.75
2023-04-09T07:36:48.182Z,54.60
2023-04-09T07:42:10.455Z,52.84
2023-04-09T07:47:33.592Z,52.99
2023-04-09T07:52:55.991Z,52.46
2023-04-09T07:58:18.351Z,53.00
2023-04-09T08:03:41.322Z,52.37
2023-04-09T08:09:04.162Z,52.90
2023-04-09T08:14:26.491Z,52.50
2023-04-09T08:19:50.116Z,53.00
2023-04-09T08:25:12.429Z,51.77
2023-04-09T08:30:35.092Z,51.49
2023-04-09T08:35:57.288Z,50.02
2023-04-09T08:41:29.351Z,50.97
2023-04-09T08:46:51.709Z,51.73
2023-04-09T08:52:16.903Z,51.62
2023-04-09T08:57:40.417Z,51.47
2023-04-09T09:03:13.766Z,51.88
2023-04-09T09:08:38.870Z,51.52
2023-04-09T09:14:02.905Z,51.53
2023-04-09T09:19:24.985Z,50.53
2023-04-09T09:24:51.809Z,50.12
2023-04-09T09:30:26.490Z,50.06
2023-04-09T09:35:54.837Z,48.40
2023-04-09T09:41:20.776Z,48.30
2023-04-09T09:46:43.221Z,48.67
2023-04-09T09:52:10.537Z,49.07
2023-04-09T09:57:37.371Z,49.36
2023-04-09T10:03:14.159Z,49.23
2023-04-09T10:08:39.044Z,48.76
2023-04-09T10:14:02.454Z,48.30
2023-04-09T10:19:24.718Z,48.17
2023-04-09T10:24:47.595Z,48.30
2023-04-09T10:30:11.152Z,47.43
2023-04-09T10:35:33.491Z,48.28
2023-04-09T10:40:56.495Z,47.84
2023-04-09T10:46:28.265Z,47.68
2023-04-09T10:51:59.386Z,47.46
2023-04-09T10:57:22.954Z,47.45
2023-04-09T11:03:08.440Z,48.33
2023-04-09T11:08:33.222Z,48.79
2023-04-09T11:14:02.241Z,49.12
2023-04-09T11:19:25.432Z,48.69
2023-04-09T11:24:48.132Z,48.01
2023-04-09T11:30:13.133Z,48.06
2023-04-09T11:35:37.174Z,47.59
2023-04-09T11:40:59.600Z,47.85
2023-04-09T11:46:29.792Z,47.81
2023-04-09T11:52:27.594Z,48.29
2023-04-09T11:58:06.126Z,48.89
2023-04-09T12:15:34.596Z,48.94
2023-04-09T12:21:23.862Z,49.43
2023-04-09T12:27:04.923Z,49.96
2023-04-09T12:32:58.973Z,49.62
2023-04-09T12:38:22.217Z,49.83
2023-04-09T12:43:44.901Z,50.08
2023-04-09T12:49:13.841Z,49.98
2023-04-09T12:54:56.115Z,49.98
2023-04-09T13:00:18.588Z,50.43
2023-04-09T13:06:00.762Z,50.48
2023-04-09T13:11:23.157Z,50.33
2023-04-09T13:16:45.519Z,50.21
2023-04-09T13:22:09.284Z,50.16
2023-04-09T13:27:32.165Z,50.42
2023-04-09T13:32:58.678Z,50.58
2023-04-09T13:38:26.336Z,50.96
2023-04-09T13:44:35.883Z,50.85
2023-04-09T13:50:17.503Z,51.23
2023-04-09T13:55:58.624Z,50.77
2023-04-09T14:01:39.902Z,50.77
2023-04-09T14:07:02.600Z,51.09
2023-04-09T14:12:25.378Z,51.28
2023-04-09T14:17:48.228Z,51.52
2023-04-09T14:23:10.596Z,51.80
2023-04-09T14:28:32.909Z,51.75
2023-04-09T14:33:55.101Z,51.95
2023-04-09T14:39:17.014Z,52.10
2023-04-09T14:44:39.499Z,52.53
2023-04-09T14:50:01.678Z,52.90
2023-04-09T14:55:26.315Z,53.48
2023-04-09T15:00:48.145Z,53.33
2023-04-09T15:06:10.298Z,52.78
2023-04-09T15:11:32.248Z,52.89
2023-04-09T15:16:56.341Z,53.11
2023-04-09T15:22:18.028Z,53.63
2023-04-09T15:27:40.083Z,53.92
2023-04-09T15:33:02.146Z,53.65
2023-04-09T15:38:25.817Z,53.60
2023-04-09T15:44:30.999Z,53.68
2023-04-09T15:49:53.139Z,53.42
2023-04-09T15:55:18.219Z,53.41
2023-04-09T16:00:43.608Z,53.93
2023-04-09T16:06:10.440Z,54.35
2023-04-09T16:11:36.947Z,54.58
2023-04-09T16:17:00.924Z,55.09
2023-04-09T16:22:23.174Z,55.76
2023-04-09T16:27:51.854Z,56.19
2023-04-09T16:33:16.424Z,57.26
2023-04-09T16:45:20.361Z,57.68
2023-04-09T16:50:43.496Z,59.00
2023-04-09T16:56:08.535Z,59.35
2023-04-09T17:01:30.567Z,59.89
2023-04-09T17:06:52.460Z,60.55
2023-04-09T17:12:14.707Z,60.83
2023-04-09T17:17:36.462Z,61.62
2023-04-09T17:22:58.375Z,61.97
2023-04-09T17:28:20.298Z,62.51
2023-04-09T17:33:49.354Z,64.24
2023-04-09T17:39:12.916Z,65.01
2023-04-09T17:44:36.137Z,65.47
2023-04-09T17:49:58.747Z,65.31
2023-04-09T17:55:20.852Z,65.84
2023-04-09T18:00:46.188Z,68.40
2023-04-09T18:06:08.798Z,68.93
2023-04-09T18:11:30.843Z,68.67
2023-04-09T18:16:53.034Z,69.42
2023-04-09T18:22:15.380Z,70.18
2023-04-09T18:27:37.564Z,72.28
2023-04-09T18:33:02.609Z,72.66
2023-04-09T18:38:30.548Z,73.07
2023-04-09T18:43:59.620Z,73.02
2023-04-09T18:49:22.545Z,73.48
2023-04-09T18:54:44.838Z,74.18
2023-04-09T19:00:08.401Z,75.78
2023-04-09T19:05:32.699Z,76.03
2023-04-09T19:10:56.142Z,77.67
2023-04-09T19:16:19.019Z,79.40
2023-04-09T19:21:41.751Z,82.22
2023-04-09T19:27:10.199Z,84.82
2023-04-09T19:32:32.226Z,87.59
2023-04-09T19:37:54.052Z,89.04
2023-04-09T19:43:16.879Z,90.21
2023-04-09T19:48:39.069Z,88.81
2023-04-09T19:54:01.453Z,87.20
2023-04-09T19:59:23.801Z,86.44
2023-04-09T20:04:45.731Z,87.82
2023-04-09T20:10:08.988Z,90.02
2023-04-09T20:15:31.583Z,93.56
2023-04-09T20:20:54.049Z,95.58
2023-04-09T20:26:15.763Z,96.18
2023-04-09T20:31:37.834Z,96.66
2023-04-09T20:36:59.961Z,98.73
2023-04-09T20:42:22.397Z,98.69
2023-04-09T20:47:44.178Z,98.08
2023-04-09T20:53:06.169Z,97.41
2023-04-09T20:58:28.856Z,98.40
2023-04-09T21:03:51.228Z,97.38
2023-04-09T21:09:12.937Z,97.30
2023-04-09T21:14:35.050Z,97.21
2023-04-09T21:19:57.252Z,99.98
2023-04-09T21:25:19.323Z,100.00
2023-04-09T21:30:42.268Z,100.00
2023-04-09T21:36:15.095Z,100.00
2023-04-09T21:41:46.608Z,100.00
2023-04-09T21:47:23.201Z,100.00
2023-04-09T21:52:57.852Z,100.00
2023-04-09T21:58:26.255Z,100.00
2023-04-09T22:04:01.486Z,100.00
2023-04-09T22:09:25.078Z,100.00
2023-04-09T22:14:55.236Z,100.00
2023-04-09T22:20:37.054Z,100.00
2023-04-09T22:26:09.140Z,100.00
2023-04-09T22:31:44.314Z,100.00
2023-04-09T22:37:10.564Z,100.00
2023-04-09T22:42:33.677Z,100.00
2023-04-09T22:47:56.157Z,100.00
2023-04-09T22:53:22.220Z,100.00
2023-04-09T22:58:44.326Z,100.00
2023-04-09T23:04:06.272Z,100.00
2023-04-09T23:09:28.184Z,100.00
2023-04-09T23:14:51.704Z,100.00
2023-04-09T23:20:15.280Z,100.00
2023-04-09T23:25:38.782Z,100.00
2023-04-09T23:31:01.188Z,100.00
2023-04-09T23:36:33.443Z,100.00
2023-04-09T23:42:11.869Z,100.00
2023-04-09T23:47:41.997Z,100.00
2023-04-09T23:53:12.318Z,100.00
2023-04-09T23:58:35.053Z,100.00
